メインページ
METAR-TAF:

METAR-TAF

空港 :

ソフィア, ブルガリア

ソフィア空港

緯度: 42-39N, 経度: 023-23E, 海抜: 586m

現時点の気象観測

当レポートは31分前の23:30(UTC)に作成
西の風 14kt
気温 -2°C
湿度 80%
気圧 1011 hPa
視程10km以上
高度1400ftの雲は散在している
高度1600ftの曇り
小雪

METAR: LBSF 242330Z 27014KT 9999 -SN SCT014 OVC016 M02/M05 Q1011 R99/29//95 NOSIG

時間: 02:01 (00:01 UTC)

予報

当レポートは1時間1分前の23:00(UTC)に作成
予報は25日の 00時(UTC)から 25日の 24時(UTC)まで有効
西/北西の風 10kt
視程: 8000m
高度2000ftの雲は散在している
高度3000ftの曇り
25日の 00時(UTC)から 25日の 06時(UTC)まで一時的に
視程: 5000m
高度1200ftの千切れ雲あり
高度3000ftの曇り
25日の 09時(UTC)から 25日の 11時(UTC)まで徐々に
北東の風 12kt
視程: 2000m
高度1000ftの千切れ雲あり
高度2000ftの曇り

TAF: LBSF 242300Z 2500/2524 29010KT 8000 SCT020 OVC030 TEMPO 2500/2506 5000 SN BKN012 OVC030 BECMG 2509/2511 04012KT 2000 SN BKN010 OVC020

4,000以上の空港の気象観測と天気予報(METAR報とTAF報)

利用可能な観測所は地図上に黄色い丸と赤い丸で示す。

丸の上にカーソルを重ねると観測所名を参照できる。

次にクリックすると気象観測と天気予報を参照できる。

マップの切り替え:黒色「×」印の緑ボタンをクリックして拡大、「-」印の緑ボタンをクリックして縮小、緑色の三角印をクリックして隣りの地図に切り替え


METAR-TAF: